sensor_id;sensor_type;location;lat;lon;timestamp;pressure;altitude;pressure_sealevel;temperature;humidity
51999;BME280;73339;50.924;11.598;2023-12-14T00:02:03;98314.55;;;11.74;49.11
51999;BME280;73339;50.924;11.598;2023-12-14T00:04:34;98318.28;;;11.75;49.14
51999;BME280;73339;50.924;11.598;2023-12-14T00:07:05;98320.53;;;11.67;49.36
51999;BME280;73339;50.924;11.598;2023-12-14T00:09:35;98319.50;;;11.67;49.45
51999;BME280;73339;50.924;11.598;2023-12-14T00:12:06;98324.93;;;11.72;49.30
51999;BME280;73339;50.924;11.598;2023-12-14T00:14:37;98325.11;;;11.68;49.39
51999;BME280;73339;50.924;11.598;2023-12-14T00:17:07;98328.36;;;11.69;49.38
51999;BME280;73339;50.924;11.598;2023-12-14T00:19:38;98330.51;;;11.72;49.28
51999;BME280;73339;50.924;11.598;2023-12-14T00:22:09;98333.35;;;11.76;49.23
51999;BME280;73339;50.924;11.598;2023-12-14T00:24:39;98338.89;;;11.79;49.14
51999;BME280;73339;50.924;11.598;2023-12-14T00:27:10;98338.54;;;11.70;49.36
51999;BME280;73339;50.924;11.598;2023-12-14T00:29:41;98343.89;;;11.68;49.39
51999;BME280;73339;50.924;11.598;2023-12-14T00:32:12;98346.35;;;11.71;49.33
51999;BME280;73339;50.924;11.598;2023-12-14T00:34:42;98345.62;;;11.74;49.20
51999;BME280;73339;50.924;11.598;2023-12-14T00:37:13;98350.73;;;11.74;49.31
51999;BME280;73339;50.924;11.598;2023-12-14T00:39:44;98354.66;;;11.70;49.38
51999;BME280;73339;50.924;11.598;2023-12-14T00:42:14;98359.47;;;11.73;49.30
51999;BME280;73339;50.924;11.598;2023-12-14T00:44:45;98362.57;;;11.73;49.27
51999;BME280;73339;50.924;11.598;2023-12-14T00:47:16;98366.71;;;11.75;49.20
51999;BME280;73339;50.924;11.598;2023-12-14T00:49:46;98368.14;;;11.69;49.39
51999;BME280;73339;50.924;11.598;2023-12-14T00:52:17;98372.00;;;11.77;49.18
51999;BME280;73339;50.924;11.598;2023-12-14T00:54:48;98376.27;;;11.72;49.35
51999;BME280;73339;50.924;11.598;2023-12-14T00:57:18;98380.71;;;11.68;49.42
51999;BME280;73339;50.924;11.598;2023-12-14T00:59:49;98384.12;;;11.76;49.22
51999;BME280;73339;50.924;11.598;2023-12-14T01:02:19;98389.63;;;11.67;49.48
51999;BME280;73339;50.924;11.598;2023-12-14T01:04:50;98392.77;;;11.74;49.29
51999;BME280;73339;50.924;11.598;2023-12-14T01:07:21;98396.87;;;11.70;49.41
51999;BME280;73339;50.924;11.598;2023-12-14T01:09:52;98399.92;;;11.78;49.23
51999;BME280;73339;50.924;11.598;2023-12-14T01:12:22;98404.92;;;11.71;49.37
51999;BME280;73339;50.924;11.598;2023-12-14T01:14:53;98403.88;;;11.73;49.32
51999;BME280;73339;50.924;11.598;2023-12-14T01:17:24;98408.41;;;11.76;49.29
51999;BME280;73339;50.924;11.598;2023-12-14T01:19:54;98412.35;;;11.66;49.53
51999;BME280;73339;50.924;11.598;2023-12-14T01:22:25;98415.24;;;11.56;49.83
51999;BME280;73339;50.924;11.598;2023-12-14T01:24:56;98415.20;;;11.74;49.36
51999;BME280;73339;50.924;11.598;2023-12-14T01:27:26;98420.06;;;11.70;49.45
51999;BME280;73339;50.924;11.598;2023-12-14T01:29:57;98422.29;;;11.67;49.54
51999;BME280;73339;50.924;11.598;2023-12-14T01:32:28;98426.43;;;11.77;49.26
51999;BME280;73339;50.924;11.598;2023-12-14T01:34:58;98430.02;;;11.74;49.30
51999;BME280;73339;50.924;11.598;2023-12-14T01:37:29;98434.50;;;11.66;49.55
51999;BME280;73339;50.924;11.598;2023-12-14T01:40:00;98441.38;;;11.62;49.63
51999;BME280;73339;50.924;11.598;2023-12-14T01:42:31;98442.72;;;11.71;49.42
51999;BME280;73339;50.924;11.598;2023-12-14T01:45:01;98448.59;;;11.75;49.30
51999;BME280;73339;50.924;11.598;2023-12-14T01:47:32;98451.92;;;11.72;49.37
51999;BME280;73339;50.924;11.598;2023-12-14T01:50:03;98456.19;;;11.69;49.42
51999;BME280;73339;50.924;11.598;2023-12-14T01:52:33;98457.28;;;11.70;49.43
51999;BME280;73339;50.924;11.598;2023-12-14T01:55:05;98457.98;;;11.73;49.33
51999;BME280;73339;50.924;11.598;2023-12-14T01:57:35;98459.80;;;11.63;49.64
51999;BME280;73339;50.924;11.598;2023-12-14T02:00:06;98461.19;;;11.68;49.53
51999;BME280;73339;50.924;11.598;2023-12-14T02:02:36;98466.01;;;11.71;49.42
51999;BME280;73339;50.924;11.598;2023-12-14T02:05:07;98467.80;;;11.76;49.34
51999;BME280;73339;50.924;11.598;2023-12-14T02:07:37;98470.03;;;11.69;49.47
51999;BME280;73339;50.924;11.598;2023-12-14T02:10:08;98474.54;;;11.74;49.38
51999;BME280;73339;50.924;11.598;2023-12-14T02:12:39;98477.23;;;11.71;49.47
51999;BME280;73339;50.924;11.598;2023-12-14T02:15:10;98482.79;;;11.69;49.50
51999;BME280;73339;50.924;11.598;2023-12-14T02:17:40;98486.40;;;11.65;49.65
51999;BME280;73339;50.924;11.598;2023-12-14T02:20:11;98488.48;;;11.76;49.42
51999;BME280;73339;50.924;11.598;2023-12-14T02:22:48;98493.81;;;11.74;49.42
51999;BME280;73339;50.924;11.598;2023-12-14T02:25:12;98501.43;;;11.63;49.72
51999;BME280;73339;50.924;11.598;2023-12-14T02:27:43;98503.25;;;11.78;49.37
51999;BME280;73339;50.924;11.598;2023-12-14T02:30:13;98505.88;;;11.72;49.54
51999;BME280;73339;50.924;11.598;2023-12-14T02:32:44;98509.11;;;11.70;49.53
51999;BME280;73339;50.924;11.598;2023-12-14T02:35:15;98511.38;;;11.77;49.38
51999;BME280;73339;50.924;11.598;2023-12-14T02:37:45;98513.76;;;11.69;49.55
51999;BME280;73339;50.924;11.598;2023-12-14T02:40:17;98518.12;;;11.69;49.59
51999;BME280;73339;50.924;11.598;2023-12-14T02:42:47;98518.78;;;11.69;49.61
51999;BME280;73339;50.924;11.598;2023-12-14T02:45:18;98517.34;;;11.69;49.61
51999;BME280;73339;50.924;11.598;2023-12-14T02:47:48;98520.04;;;11.63;49.76
51999;BME280;73339;50.924;11.598;2023-12-14T02:50:19;98521.20;;;11.74;49.52
51999;BME280;73339;50.924;11.598;2023-12-14T02:52:49;98523.06;;;11.72;49.55
51999;BME280;73339;50.924;11.598;2023-12-14T02:55:20;98524.63;;;11.68;49.67
51999;BME280;73339;50.924;11.598;2023-12-14T02:57:51;98528.42;;;11.63;49.77
51999;BME280;73339;50.924;11.598;2023-12-14T03:00:22;98531.89;;;11.75;49.46
51999;BME280;73339;50.924;11.598;2023-12-14T03:02:52;98534.35;;;11.67;49.64
51999;BME280;73339;50.924;11.598;2023-12-14T03:05:23;98534.44;;;11.65;49.71
51999;BME280;73339;50.924;11.598;2023-12-14T03:07:54;98540.40;;;11.68;49.62
51999;BME280;73339;50.924;11.598;2023-12-14T03:10:24;98544.20;;;11.66;49.67
51999;BME280;73339;50.924;11.598;2023-12-14T03:12:55;98546.65;;;11.69;49.63
51999;BME280;73339;50.924;11.598;2023-12-14T03:15:26;98549.65;;;11.71;49.56
51999;BME280;73339;50.924;11.598;2023-12-14T03:17:57;98554.02;;;11.65;49.70
51999;BME280;73339;50.924;11.598;2023-12-14T03:20:27;98557.37;;;11.67;49.67
51999;BME280;73339;50.924;11.598;2023-12-14T03:22:58;98558.78;;;11.70;49.57
51999;BME280;73339;50.924;11.598;2023-12-14T03:25:29;98560.33;;;11.69;49.58
51999;BME280;73339;50.924;11.598;2023-12-14T03:27:59;98563.29;;;11.68;49.59
51999;BME280;73339;50.924;11.598;2023-12-14T03:30:30;98563.78;;;11.68;49.58
51999;BME280;73339;50.924;11.598;2023-12-14T03:33:01;98566.90;;;11.72;49.51
51999;BME280;73339;50.924;11.598;2023-12-14T03:35:31;98575.54;;;11.69;49.59
51999;BME280;73339;50.924;11.598;2023-12-14T03:38:02;98580.81;;;11.70;49.59
51999;BME280;73339;50.924;11.598;2023-12-14T03:40:33;98582.86;;;11.76;49.50
51999;BME280;73339;50.924;11.598;2023-12-14T03:43:04;98591.67;;;11.68;49.72
51999;BME280;73339;50.924;11.598;2023-12-14T03:45:34;98595.38;;;11.71;49.71
51999;BME280;73339;50.924;11.598;2023-12-14T03:48:05;98601.73;;;11.69;49.70
51999;BME280;73339;50.924;11.598;2023-12-14T03:50:35;98607.08;;;11.64;49.81
51999;BME280;73339;50.924;11.598;2023-12-14T03:53:06;98614.63;;;11.66;49.77
51999;BME280;73339;50.924;11.598;2023-12-14T03:55:37;98618.01;;;11.73;49.62
51999;BME280;73339;50.924;11.598;2023-12-14T03:58:07;98621.76;;;11.64;49.83
51999;BME280;73339;50.924;11.598;2023-12-14T04:00:38;98625.11;;;11.64;49.78
51999;BME280;73339;50.924;11.598;2023-12-14T04:03:09;98628.12;;;11.63;49.88
51999;BME280;73339;50.924;11.598;2023-12-14T04:05:39;98631.91;;;11.70;49.73
51999;BME280;73339;50.924;11.598;2023-12-14T04:08:10;98632.63;;;11.64;49.85
51999;BME280;73339;50.924;11.598;2023-12-14T04:10:41;98636.91;;;11.69;49.69
51999;BME280;73339;50.924;11.598;2023-12-14T04:13:11;98643.16;;;11.66;49.79
51999;BME280;73339;50.924;11.598;2023-12-14T04:15:42;98650.11;;;11.71;49.63
51999;BME280;73339;50.924;11.598;2023-12-14T04:18:12;98659.28;;;11.70;49.69
51999;BME280;73339;50.924;11.598;2023-12-14T04:20:43;98660.98;;;11.61;49.90
51999;BME280;73339;50.924;11.598;2023-12-14T04:23:14;98664.83;;;11.62;49.94
51999;BME280;73339;50.924;11.598;2023-12-14T04:25:45;98669.96;;;11.65;49.72
51999;BME280;73339;50.924;11.598;2023-12-14T04:28:15;98674.57;;;11.63;49.82
51999;BME280;73339;50.924;11.598;2023-12-14T04:30:46;98674.79;;;11.67;49.71
51999;BME280;73339;50.924;11.598;2023-12-14T04:33:16;98682.07;;;11.62;49.85
51999;BME280;73339;50.924;11.598;2023-12-14T04:35:47;98682.99;;;11.63;49.83
51999;BME280;73339;50.924;11.598;2023-12-14T04:38:18;98691.27;;;11.68;49.69
51999;BME280;73339;50.924;11.598;2023-12-14T04:40:48;98696.73;;;11.63;49.79
51999;BME280;73339;50.924;11.598;2023-12-14T04:43:19;98702.52;;;11.64;49.79
51999;BME280;73339;50.924;11.598;2023-12-14T04:45:50;98707.91;;;11.59;49.86
51999;BME280;73339;50.924;11.598;2023-12-14T04:48:20;98714.52;;;11.67;49.64
51999;BME280;73339;50.924;11.598;2023-12-14T04:50:51;98717.49;;;11.67;49.64
51999;BME280;73339;50.924;11.598;2023-12-14T04:53:22;98719.51;;;11.73;49.51
51999;BME280;73339;50.924;11.598;2023-12-14T04:55:53;98722.87;;;11.66;49.64
51999;BME280;73339;50.924;11.598;2023-12-14T04:58:23;98727.59;;;11.60;49.76
51999;BME280;73339;50.924;11.598;2023-12-14T05:00:54;98729.35;;;11.71;49.47
51999;BME280;73339;50.924;11.598;2023-12-14T05:03:25;98728.73;;;11.67;49.56
51999;BME280;73339;50.924;11.598;2023-12-14T05:05:55;98734.03;;;11.63;49.62
51999;BME280;73339;50.924;11.598;2023-12-14T05:08:26;98731.74;;;11.54;49.80
51999;BME280;73339;50.924;11.598;2023-12-14T05:10:57;98735.41;;;11.60;49.67
51999;BME280;73339;50.924;11.598;2023-12-14T05:13:27;98740.97;;;11.64;49.56
51999;BME280;73339;50.924;11.598;2023-12-14T05:15:58;98747.03;;;11.69;49.38
51999;BME280;73339;50.924;11.598;2023-12-14T05:18:29;98749.06;;;11.73;49.23
51999;BME280;73339;50.924;11.598;2023-12-14T05:20:59;98751.07;;;11.59;49.62
51999;BME280;73339;50.924;11.598;2023-12-14T05:23:30;98754.18;;;11.65;49.43
51999;BME280;73339;50.924;11.598;2023-12-14T05:26:01;98757.54;;;11.67;49.35
51999;BME280;73339;50.924;11.598;2023-12-14T05:28:32;98763.37;;;11.66;49.33
51999;BME280;73339;50.924;11.598;2023-12-14T05:31:02;98763.53;;;11.69;49.24
51999;BME280;73339;50.924;11.598;2023-12-14T05:33:36;98766.56;;;11.66;49.26
51999;BME280;73339;50.924;11.598;2023-12-14T05:36:04;98773.28;;;11.67;49.26
51999;BME280;73339;50.924;11.598;2023-12-14T05:38:34;98779.06;;;11.72;49.11
51999;BME280;73339;50.924;11.598;2023-12-14T05:41:05;98780.44;;;11.64;49.26
51999;BME280;73339;50.924;11.598;2023-12-14T05:43:36;98784.29;;;11.56;49.48
51999;BME280;73339;50.924;11.598;2023-12-14T05:46:06;98789.31;;;11.62;49.31
51999;BME280;73339;50.924;11.598;2023-12-14T05:48:37;98796.72;;;11.63;49.27
51999;BME280;73339;50.924;11.598;2023-12-14T05:51:08;98804.48;;;11.66;49.16
51999;BME280;73339;50.924;11.598;2023-12-14T05:53:39;98810.53;;;11.60;49.30
51999;BME280;73339;50.924;11.598;2023-12-14T05:56:09;98815.58;;;11.65;49.15
51999;BME280;73339;50.924;11.598;2023-12-14T05:58:40;98825.45;;;11.65;49.14
51999;BME280;73339;50.924;11.598;2023-12-14T06:01:10;98828.88;;;11.59;49.24
51999;BME280;73339;50.924;11.598;2023-12-14T06:03:41;98831.21;;;11.68;49.01
51999;BME280;73339;50.924;11.598;2023-12-14T06:06:12;98832.29;;;11.65;49.06
51999;BME280;73339;50.924;11.598;2023-12-14T06:08:42;98835.46;;;11.69;48.96
51999;BME280;73339;50.924;11.598;2023-12-14T06:11:13;98840.61;;;11.60;49.17
51999;BME280;73339;50.924;11.598;2023-12-14T06:13:43;98842.74;;;11.64;49.05
51999;BME280;73339;50.924;11.598;2023-12-14T06:16:14;98848.72;;;11.70;48.91
51999;BME280;73339;50.924;11.598;2023-12-14T06:18:45;98851.82;;;11.62;49.10
51999;BME280;73339;50.924;11.598;2023-12-14T06:21:15;98854.67;;;11.60;49.10
51999;BME280;73339;50.924;11.598;2023-12-14T06:23:46;98859.70;;;11.67;48.91
51999;BME280;73339;50.924;11.598;2023-12-14T06:26:17;98862.86;;;11.58;49.11
51999;BME280;73339;50.924;11.598;2023-12-14T06:28:47;98866.23;;;11.58;49.12
51999;BME280;73339;50.924;11.598;2023-12-14T06:31:19;98870.92;;;11.67;48.92
51999;BME280;73339;50.924;11.598;2023-12-14T06:33:49;98872.97;;;11.70;48.80
51999;BME280;73339;50.924;11.598;2023-12-14T06:36:19;98880.49;;;11.64;48.99
51999;BME280;73339;50.924;11.598;2023-12-14T06:38:50;98885.69;;;11.62;49.01
51999;BME280;73339;50.924;11.598;2023-12-14T06:41:21;98891.08;;;11.57;49.11
51999;BME280;73339;50.924;11.598;2023-12-14T06:43:51;98894.68;;;11.57;49.10
51999;BME280;73339;50.924;11.598;2023-12-14T06:46:22;98900.29;;;11.66;48.86
51999;BME280;73339;50.924;11.598;2023-12-14T06:48:52;98904.00;;;11.67;48.82
51999;BME280;73339;50.924;11.598;2023-12-14T06:51:23;98908.27;;;11.65;48.88
51999;BME280;73339;50.924;11.598;2023-12-14T06:53:54;98913.91;;;11.60;48.98
51999;BME280;73339;50.924;11.598;2023-12-14T06:56:25;98913.73;;;11.69;48.74
51999;BME280;73339;50.924;11.598;2023-12-14T06:58:55;98919.07;;;11.63;48.84
51999;BME280;73339;50.924;11.598;2023-12-14T07:01:26;98921.46;;;11.67;48.74
51999;BME280;73339;50.924;11.598;2023-12-14T07:03:57;98926.05;;;11.64;48.76
51999;BME280;73339;50.924;11.598;2023-12-14T07:06:28;98934.61;;;11.67;48.71
51999;BME280;73339;50.924;11.598;2023-12-14T07:08:58;98945.06;;;11.59;48.86
51999;BME280;73339;50.924;11.598;2023-12-14T07:11:29;98950.05;;;11.61;48.81
51999;BME280;73339;50.924;11.598;2023-12-14T07:13:59;98953.05;;;11.55;48.94
51999;BME280;73339;50.924;11.598;2023-12-14T07:16:30;98957.77;;;11.62;48.76
51999;BME280;73339;50.924;11.598;2023-12-14T07:19:01;98956.97;;;11.58;48.84
51999;BME280;73339;50.924;11.598;2023-12-14T07:21:31;98961.61;;;11.60;48.76
51999;BME280;73339;50.924;11.598;2023-12-14T07:24:02;98966.89;;;11.55;48.91
51999;BME280;73339;50.924;11.598;2023-12-14T07:26:33;98975.31;;;11.58;48.82
51999;BME280;73339;50.924;11.598;2023-12-14T07:29:03;98980.65;;;11.62;48.72
51999;BME280;73339;50.924;11.598;2023-12-14T07:31:34;98984.68;;;11.56;48.79
51999;BME280;73339;50.924;11.598;2023-12-14T07:34:04;98992.36;;;11.64;48.62
51999;BME280;73339;50.924;11.598;2023-12-14T07:36:35;98999.36;;;11.60;48.69
51999;BME280;73339;50.924;11.598;2023-12-14T07:39:05;99002.14;;;11.71;48.37
51999;BME280;73339;50.924;11.598;2023-12-14T07:41:36;99006.50;;;11.67;48.46
51999;BME280;73339;50.924;11.598;2023-12-14T07:44:07;99014.80;;;11.59;48.62
51999;BME280;73339;50.924;11.598;2023-12-14T07:46:37;99016.71;;;11.64;48.50
51999;BME280;73339;50.924;11.598;2023-12-14T07:49:08;99023.73;;;11.62;48.55
51999;BME280;73339;50.924;11.598;2023-12-14T07:51:39;99029.79;;;11.60;48.58
51999;BME280;73339;50.924;11.598;2023-12-14T07:54:09;99033.71;;;11.58;48.62
51999;BME280;73339;50.924;11.598;2023-12-14T07:56:40;99038.37;;;11.69;48.35
51999;BME280;73339;50.924;11.598;2023-12-14T07:59:12;99041.54;;;11.58;48.62
51999;BME280;73339;50.924;11.598;2023-12-14T08:01:41;99048.47;;;11.68;48.32
51999;BME280;73339;50.924;11.598;2023-12-14T08:04:12;99051.64;;;11.58;48.60
51999;BME280;73339;50.924;11.598;2023-12-14T08:06:43;99055.10;;;11.60;48.55
51999;BME280;73339;50.924;11.598;2023-12-14T08:09:13;99059.06;;;11.62;48.48
51999;BME280;73339;50.924;11.598;2023-12-14T08:11:44;99064.93;;;11.56;48.64
51999;BME280;73339;50.924;11.598;2023-12-14T08:14:15;99068.53;;;11.52;48.68
51999;BME280;73339;50.924;11.598;2023-12-14T08:16:45;99076.12;;;11.64;48.38
51999;BME280;73339;50.924;11.598;2023-12-14T08:19:16;99076.09;;;11.62;48.42
51999;BME280;73339;50.924;11.598;2023-12-14T08:21:47;99081.03;;;11.62;48.43
51999;BME280;73339;50.924;11.598;2023-12-14T08:24:18;99085.08;;;11.61;48.44
51999;BME280;73339;50.924;11.598;2023-12-14T08:26:48;99085.75;;;11.62;48.42
51999;BME280;73339;50.924;11.598;2023-12-14T08:29:19;99087.99;;;11.65;48.30
51999;BME280;73339;50.924;11.598;2023-12-14T08:31:49;99092.04;;;11.60;48.44
51999;BME280;73339;50.924;11.598;2023-12-14T08:34:20;99096.26;;;11.59;48.42
51999;BME280;73339;50.924;11.598;2023-12-14T08:36:51;99101.32;;;11.61;48.37
51999;BME280;73339;50.924;11.598;2023-12-14T08:39:22;99108.11;;;11.65;48.24
51999;BME280;73339;50.924;11.598;2023-12-14T08:41:53;99113.96;;;11.58;48.40
51999;BME280;73339;50.924;11.598;2023-12-14T08:44:23;99121.30;;;11.58;48.40
51999;BME280;73339;50.924;11.598;2023-12-14T08:46:54;99128.94;;;11.68;48.11
51999;BME280;73339;50.924;11.598;2023-12-14T08:49:24;99133.45;;;11.69;48.09
51999;BME280;73339;50.924;11.598;2023-12-14T08:51:55;99138.03;;;11.64;48.19
51999;BME280;73339;50.924;11.598;2023-12-14T08:54:26;99144.03;;;11.58;48.34
51999;BME280;73339;50.924;11.598;2023-12-14T08:56:56;99147.24;;;11.56;48.40
51999;BME280;73339;50.924;11.598;2023-12-14T08:59:27;99146.96;;;11.61;48.19
51999;BME280;73339;50.924;11.598;2023-12-14T09:01:58;99147.59;;;11.66;48.11
51999;BME280;73339;50.924;11.598;2023-12-14T09:04:28;99151.40;;;11.64;48.14
51999;BME280;73339;50.924;11.598;2023-12-14T09:06:59;99158.84;;;11.62;48.14
51999;BME280;73339;50.924;11.598;2023-12-14T09:09:30;99167.32;;;11.57;48.23
51999;BME280;73339;50.924;11.598;2023-12-14T09:12:00;99172.45;;;11.67;47.98
51999;BME280;73339;50.924;11.598;2023-12-14T09:14:31;99178.18;;;11.64;48.05
51999;BME280;73339;50.924;11.598;2023-12-14T09:17:02;99182.75;;;11.66;47.99
51999;BME280;73339;50.924;11.598;2023-12-14T09:19:32;99185.14;;;11.64;48.04
51999;BME280;73339;50.924;11.598;2023-12-14T09:22:04;99187.12;;;11.62;48.04
51999;BME280;73339;50.924;11.598;2023-12-14T09:24:34;99193.20;;;11.62;48.04
51999;BME280;73339;50.924;11.598;2023-12-14T09:27:05;99199.12;;;11.59;48.09
51999;BME280;73339;50.924;11.598;2023-12-14T09:29:35;99204.09;;;11.65;47.93
51999;BME280;73339;50.924;11.598;2023-12-14T09:32:07;99205.47;;;11.63;47.99
51999;BME280;73339;50.924;11.598;2023-12-14T09:34:37;99209.38;;;11.70;47.82
51999;BME280;73339;50.924;11.598;2023-12-14T09:37:07;99213.18;;;11.66;47.88
51999;BME280;73339;50.924;11.598;2023-12-14T09:39:38;99215.90;;;11.56;48.12
51999;BME280;73339;50.924;11.598;2023-12-14T09:42:09;99220.35;;;11.64;47.91
51999;BME280;73339;50.924;11.598;2023-12-14T09:44:40;99223.62;;;11.65;47.85
51999;BME280;73339;50.924;11.598;2023-12-14T09:47:10;99226.81;;;11.66;47.82
51999;BME280;73339;50.924;11.598;2023-12-14T09:49:41;99228.65;;;11.60;47.96
51999;BME280;73339;50.924;11.598;2023-12-14T09:52:12;99229.18;;;11.69;47.73
51999;BME280;73339;50.924;11.598;2023-12-14T09:54:42;99229.39;;;11.61;47.90
51999;BME280;73339;50.924;11.598;2023-12-14T09:57:13;99229.03;;;11.66;47.77
51999;BME280;73339;50.924;11.598;2023-12-14T09:59:50;99234.57;;;11.60;47.91
51999;BME280;73339;50.924;11.598;2023-12-14T10:02:14;99243.90;;;11.61;47.89
51999;BME280;73339;50.924;11.598;2023-12-14T10:04:45;99240.94;;;11.69;47.64
51999;BME280;73339;50.924;11.598;2023-12-14T10:07:15;99243.57;;;11.68;47.65
51999;BME280;73339;50.924;11.598;2023-12-14T10:09:46;99244.04;;;11.61;47.85
51999;BME280;73339;50.924;11.598;2023-12-14T10:12:17;99247.42;;;11.63;47.80
51999;BME280;73339;50.924;11.598;2023-12-14T10:17:20;99256.68;;;11.67;47.66
51999;BME280;73339;50.924;11.598;2023-12-14T10:19:49;99261.32;;;11.57;47.87
51999;BME280;73339;50.924;11.598;2023-12-14T10:22:20;99261.73;;;11.62;47.74
51999;BME280;73339;50.924;11.598;2023-12-14T10:24:50;99264.49;;;11.57;47.87
51999;BME280;73339;50.924;11.598;2023-12-14T10:27:21;99269.98;;;11.72;47.51
51999;BME280;73339;50.924;11.598;2023-12-14T10:29:52;99273.17;;;11.66;47.64
51999;BME280;73339;50.924;11.598;2023-12-14T10:32:23;99276.04;;;11.60;47.79
51999;BME280;73339;50.924;11.598;2023-12-14T10:34:53;99275.55;;;11.67;47.62
51999;BME280;73339;50.924;11.598;2023-12-14T10:37:25;99277.35;;;11.63;47.74
51999;BME280;73339;50.924;11.598;2023-12-14T10:39:56;99278.73;;;11.57;47.84
51999;BME280;73339;50.924;11.598;2023-12-14T10:42:26;99280.37;;;11.67;47.60
51999;BME280;73339;50.924;11.598;2023-12-14T10:44:56;99282.96;;;11.62;47.72
51999;BME280;73339;50.924;11.598;2023-12-14T10:47:27;99286.35;;;11.62;47.69
51999;BME280;73339;50.924;11.598;2023-12-14T10:50:00;99286.46;;;11.58;47.84
51999;BME280;73339;50.924;11.598;2023-12-14T10:52:29;99289.22;;;11.66;47.60
51999;BME280;73339;50.924;11.598;2023-12-14T10:55:04;99291.42;;;11.63;47.65
51999;BME280;73339;50.924;11.598;2023-12-14T10:57:29;99294.14;;;11.59;47.73
51999;BME280;73339;50.924;11.598;2023-12-14T11:00:00;99299.86;;;11.63;47.65
51999;BME280;73339;50.924;11.598;2023-12-14T11:05:01;99307.75;;;11.74;47.39
51999;BME280;73339;50.924;11.598;2023-12-14T11:10:03;99316.53;;;11.72;47.40
51999;BME280;73339;50.924;11.598;2023-12-14T11:12:34;99321.19;;;11.65;47.56
51999;BME280;73339;50.924;11.598;2023-12-14T11:15:06;99319.85;;;11.68;47.47
51999;BME280;73339;50.924;11.598;2023-12-14T11:17:35;99329.04;;;11.66;47.48
51999;BME280;73339;50.924;11.598;2023-12-14T11:22:36;99340.85;;;11.70;47.44
51999;BME280;73339;50.924;11.598;2023-12-14T11:25:07;99345.68;;;11.68;47.49
51999;BME280;73339;50.924;11.598;2023-12-14T11:27:43;99348.56;;;11.66;47.48
51999;BME280;73339;50.924;11.598;2023-12-14T11:30:11;99352.54;;;11.73;47.33
51999;BME280;73339;50.924;11.598;2023-12-14T11:32:39;99353.83;;;11.70;47.43
51999;BME280;73339;50.924;11.598;2023-12-14T11:35:09;99358.37;;;11.65;47.53
51999;BME280;73339;50.924;11.598;2023-12-14T11:37:40;99359.96;;;11.64;47.56
51999;BME280;73339;50.924;11.598;2023-12-14T11:40:11;99364.27;;;11.54;47.81
51999;BME280;73339;50.924;11.598;2023-12-14T11:42:41;99367.06;;;11.65;47.54
51999;BME280;73339;50.924;11.598;2023-12-14T11:45:12;99373.54;;;11.64;47.52
51999;BME280;73339;50.924;11.598;2023-12-14T11:47:43;99380.54;;;11.65;47.52
51999;BME280;73339;50.924;11.598;2023-12-14T11:50:14;99383.18;;;11.60;47.64
51999;BME280;73339;50.924;11.598;2023-12-14T11:52:44;99381.96;;;11.77;47.20
51999;BME280;73339;50.924;11.598;2023-12-14T11:55:15;99384.61;;;11.69;47.38
51999;BME280;73339;50.924;11.598;2023-12-14T11:57:46;99385.98;;;11.66;47.47
51999;BME280;73339;50.924;11.598;2023-12-14T12:00:17;99389.32;;;11.65;47.49
51999;BME280;73339;50.924;11.598;2023-12-14T12:02:47;99388.00;;;11.65;47.49
51999;BME280;73339;50.924;11.598;2023-12-14T12:05:18;99391.61;;;11.58;47.63
51999;BME280;73339;50.924;11.598;2023-12-14T12:07:48;99394.14;;;11.63;47.53
51999;BME280;73339;50.924;11.598;2023-12-14T12:10:19;99397.30;;;11.60;47.57
51999;BME280;73339;50.924;11.598;2023-12-14T12:12:58;99395.20;;;11.70;47.33
51999;BME280;73339;50.924;11.598;2023-12-14T12:15:20;99399.21;;;11.67;47.38
51999;BME280;73339;50.924;11.598;2023-12-14T12:17:51;99400.34;;;11.67;47.37
51999;BME280;73339;50.924;11.598;2023-12-14T12:20:22;99404.60;;;11.65;47.47
51999;BME280;73339;50.924;11.598;2023-12-14T12:22:52;99409.41;;;11.69;47.32
51999;BME280;73339;50.924;11.598;2023-12-14T12:25:23;99409.42;;;11.67;47.34
51999;BME280;73339;50.924;11.598;2023-12-14T12:27:54;99409.78;;;11.72;47.23
51999;BME280;73339;50.924;11.598;2023-12-14T12:30:25;99410.68;;;11.72;47.23
51999;BME280;73339;50.924;11.598;2023-12-14T12:32:55;99412.13;;;11.64;47.46
51999;BME280;73339;50.924;11.598;2023-12-14T12:35:26;99416.24;;;11.71;47.25
51999;BME280;73339;50.924;11.598;2023-12-14T12:37:56;99417.20;;;11.67;47.32
51999;BME280;73339;50.924;11.598;2023-12-14T12:40:27;99418.96;;;11.72;47.20
51999;BME280;73339;50.924;11.598;2023-12-14T12:42:58;99420.18;;;11.70;47.26
51999;BME280;73339;50.924;11.598;2023-12-14T12:45:28;99420.18;;;11.71;47.20
51999;BME280;73339;50.924;11.598;2023-12-14T12:47:59;99421.79;;;11.65;47.36
51999;BME280;73339;50.924;11.598;2023-12-14T12:50:30;99423.83;;;11.71;47.24
51999;BME280;73339;50.924;11.598;2023-12-14T12:53:01;99426.27;;;11.66;47.30
51999;BME280;73339;50.924;11.598;2023-12-14T12:55:31;99426.80;;;11.68;47.25
51999;BME280;73339;50.924;11.598;2023-12-14T12:58:02;99432.26;;;11.63;47.39
51999;BME280;73339;50.924;11.598;2023-12-14T13:00:32;99438.17;;;11.66;47.32
51999;BME280;73339;50.924;11.598;2023-12-14T13:03:03;99441.31;;;11.65;47.30
51999;BME280;73339;50.924;11.598;2023-12-14T13:05:34;99444.63;;;11.66;47.30
51999;BME280;73339;50.924;11.598;2023-12-14T13:08:05;99442.70;;;11.65;47.27
51999;BME280;73339;50.924;11.598;2023-12-14T13:10:35;99442.29;;;11.64;47.31
51999;BME280;73339;50.924;11.598;2023-12-14T13:13:06;99446.16;;;11.63;47.31
51999;BME280;73339;50.924;11.598;2023-12-14T13:15:38;99452.97;;;11.62;47.37
51999;BME280;73339;50.924;11.598;2023-12-14T13:18:07;99458.16;;;11.71;47.10